createdAt,value
2018-11-22T00:01:50.233Z,5.90
2018-11-22T00:04:17.543Z,5.90
2018-11-22T00:06:44.807Z,6.20
2018-11-22T00:09:12.097Z,5.90
2018-11-22T00:11:40.073Z,5.90
2018-11-22T00:14:07.979Z,6.00
2018-11-22T00:16:35.746Z,6.00
2018-11-22T00:19:03.273Z,5.90
2018-11-22T00:21:31.116Z,5.90
2018-11-22T00:23:58.994Z,6.30
2018-11-22T00:26:27.768Z,5.90
2018-11-22T00:28:55.258Z,5.60
2018-11-22T00:31:22.866Z,5.90
2018-11-22T00:33:50.360Z,6.00
2018-11-22T00:36:17.868Z,5.80
2018-11-22T00:38:45.716Z,5.70
2018-11-22T00:41:13.642Z,6.00
2018-11-22T00:43:41.110Z,6.20
2018-11-22T00:46:09.255Z,6.30
2018-11-22T00:48:37.017Z,5.90
2018-11-22T00:51:04.558Z,6.30
2018-11-22T00:53:32.384Z,6.00
2018-11-22T00:56:00.255Z,6.20
2018-11-22T00:58:28.088Z,5.80
2018-11-22T01:00:55.306Z,6.20
2018-11-22T01:03:23.100Z,6.10
2018-11-22T01:05:50.315Z,6.00
2018-11-22T01:08:18.102Z,5.90
2018-11-22T01:10:45.447Z,5.70
2018-11-22T01:13:13.571Z,5.90
2018-11-22T01:15:41.159Z,6.20
2018-11-22T01:18:08.474Z,6.00
2018-11-22T01:20:35.955Z,6.20
2018-11-22T01:23:03.749Z,6.30
2018-11-22T01:25:31.854Z,6.00
2018-11-22T01:27:59.090Z,6.00
2018-11-22T01:30:26.884Z,6.00
2018-11-22T01:32:55.315Z,5.90
2018-11-22T01:35:23.472Z,6.20
2018-11-22T01:37:51.333Z,6.20
2018-11-22T01:40:20.226Z,6.10
2018-11-22T01:42:48.096Z,5.90
2018-11-22T01:45:16.760Z,5.90
2018-11-22T01:47:44.245Z,6.10
2018-11-22T01:50:13.102Z,6.00
2018-11-22T01:52:40.650Z,6.20
2018-11-22T01:55:09.921Z,6.30
2018-11-22T01:57:38.186Z,6.30
2018-11-22T02:00:08.667Z,6.50
2018-11-22T02:02:36.148Z,6.60
2018-11-22T02:05:04.396Z,6.00
2018-11-22T02:07:31.905Z,6.00
2018-11-22T02:09:59.115Z,6.50
2018-11-22T02:12:26.901Z,6.00
2018-11-22T02:14:55.032Z,5.70
2018-11-22T02:17:22.545Z,6.10
2018-11-22T02:19:50.915Z,5.90
2018-11-22T02:22:18.506Z,6.20
2018-11-22T02:24:45.990Z,6.30
2018-11-22T02:27:13.782Z,6.10
2018-11-22T02:29:41.279Z,6.30
2018-11-22T02:32:08.765Z,6.20
2018-11-22T02:34:35.996Z,6.20
2018-11-22T02:37:03.475Z,6.00
2018-11-22T02:39:31.357Z,5.90
2018-11-22T02:41:58.830Z,6.20
2018-11-22T02:44:26.637Z,6.10
2018-11-22T02:46:54.122Z,6.20
2018-11-22T02:49:22.170Z,6.00
2018-11-22T02:51:49.778Z,6.20
2018-11-22T02:54:17.621Z,6.10
2018-11-22T02:56:45.417Z,5.90
2018-11-22T02:59:12.605Z,5.70
2018-11-22T03:01:40.177Z,5.70
2018-11-22T03:04:07.653Z,5.90
2018-11-22T03:06:35.160Z,5.60
2018-11-22T03:09:03.798Z,5.70
2018-11-22T03:11:31.716Z,5.60
2018-11-22T03:13:59.526Z,5.60
2018-11-22T03:16:27.044Z,5.70
2018-11-22T03:18:55.067Z,5.60
2018-11-22T03:21:22.595Z,6.10
2018-11-22T03:23:50.372Z,5.60
2018-11-22T03:26:17.840Z,6.20
2018-11-22T03:28:45.069Z,5.90
2018-11-22T03:31:12.571Z,6.10
2018-11-22T03:33:40.089Z,5.70
2018-11-22T03:36:07.307Z,5.70
2018-11-22T03:38:35.374Z,5.60
2018-11-22T03:41:02.870Z,5.90
2018-11-22T03:43:30.098Z,5.60
2018-11-22T03:45:58.155Z,5.70
2018-11-22T03:48:26.243Z,6.20
2018-11-22T03:50:53.934Z,6.00
2018-11-22T03:53:21.138Z,5.90
2018-11-22T03:55:49.036Z,6.00
2018-11-22T03:58:16.856Z,6.20
2018-11-22T04:00:44.685Z,5.90
2018-11-22T04:03:12.194Z,6.10
2018-11-22T04:05:39.700Z,5.90
2018-11-22T04:08:07.212Z,5.90
2018-11-22T04:10:34.736Z,5.90
2018-11-22T04:13:02.237Z,5.60
2018-11-22T04:15:30.006Z,5.90
2018-11-22T04:17:57.376Z,5.60
2018-11-22T04:20:26.393Z,5.90
2018-11-22T04:22:53.894Z,5.60
2018-11-22T04:25:22.090Z,5.90
2018-11-22T04:27:50.487Z,5.70
2018-11-22T04:30:32.092Z,5.60
2018-11-22T04:32:59.899Z,5.70
2018-11-22T04:35:27.324Z,5.60
2018-11-22T04:37:55.220Z,5.70
2018-11-22T04:40:24.106Z,5.60
2018-11-22T04:42:52.544Z,5.90
2018-11-22T04:45:20.702Z,5.70
2018-11-22T04:47:49.949Z,5.70
2018-11-22T04:50:18.872Z,5.60
2018-11-22T04:52:46.684Z,6.20
2018-11-22T04:55:14.242Z,5.70
2018-11-22T04:57:41.802Z,5.90
2018-11-22T05:00:10.999Z,5.60
2018-11-22T05:02:38.801Z,5.60
2018-11-22T05:05:07.485Z,5.60
2018-11-22T05:07:35.035Z,5.60
2018-11-22T05:10:03.121Z,5.70
2018-11-22T05:12:30.618Z,5.70
2018-11-22T05:14:58.495Z,5.70
2018-11-22T05:17:26.291Z,5.60
2018-11-22T05:19:53.501Z,5.60
2018-11-22T05:22:21.019Z,5.70
2018-11-22T05:24:48.809Z,5.60
2018-11-22T05:27:16.654Z,5.50
2018-11-22T05:29:45.414Z,5.40
2018-11-22T05:32:12.893Z,5.30
2018-11-22T05:34:40.705Z,5.30
2018-11-22T05:37:09.005Z,5.30
2018-11-22T05:39:36.803Z,5.50
2018-11-22T05:42:04.743Z,5.40
2018-11-22T05:44:31.975Z,5.40
2018-11-22T05:47:02.633Z,5.50
2018-11-22T05:49:27.328Z,5.60
2018-11-22T05:51:55.395Z,5.30
2018-11-22T05:54:22.618Z,5.40
2018-11-22T05:56:50.410Z,5.20
2018-11-22T05:59:17.942Z,5.30
2018-11-22T06:01:46.039Z,5.40
2018-11-22T06:04:13.807Z,5.10
2018-11-22T06:06:41.598Z,5.30
2018-11-22T06:09:10.127Z,5.10
2018-11-22T06:11:37.961Z,5.10
2018-11-22T06:14:05.801Z,5.10
2018-11-22T06:16:33.291Z,5.10
2018-11-22T06:19:00.881Z,5.10
2018-11-22T06:21:28.076Z,5.10
2018-11-22T06:23:55.667Z,5.20
2018-11-22T06:26:23.453Z,5.10
2018-11-22T06:28:50.987Z,5.00
2018-11-22T06:31:18.260Z,4.80
2018-11-22T06:33:46.065Z,5.30
2018-11-22T06:36:13.593Z,5.20
2018-11-22T06:38:41.076Z,5.10
2018-11-22T06:41:08.328Z,5.20
2018-11-22T06:43:36.083Z,5.20
2018-11-22T06:46:04.017Z,5.40
2018-11-22T06:48:31.607Z,5.00
2018-11-22T06:50:59.504Z,5.30
2018-11-22T06:53:27.045Z,5.50
2018-11-22T06:55:54.298Z,5.70
2018-11-22T06:58:21.788Z,5.50
2018-11-22T07:00:49.885Z,5.10
2018-11-22T07:03:17.399Z,5.40
2018-11-22T07:05:45.258Z,5.50
2018-11-22T07:08:13.127Z,5.10
2018-11-22T07:10:40.716Z,5.30
2018-11-22T07:13:08.313Z,5.30
2018-11-22T07:15:36.370Z,5.00
2018-11-22T07:18:03.967Z,5.40
2018-11-22T07:20:32.361Z,5.40
2018-11-22T07:23:01.629Z,5.40
2018-11-22T07:25:29.254Z,5.40
2018-11-22T07:27:56.805Z,5.30
2018-11-22T07:30:28.559Z,5.30
2018-11-22T07:32:56.294Z,5.30
2018-11-22T07:35:25.126Z,5.40
2018-11-22T07:37:52.924Z,5.40
2018-11-22T07:40:21.937Z,5.30
2018-11-22T12:16:59.086Z,8.00
2018-11-22T12:19:27.079Z,8.10
2018-11-22T12:21:54.777Z,8.10
2018-11-22T12:24:22.506Z,8.10
2018-11-22T12:26:50.225Z,8.20
2018-11-22T12:29:17.959Z,8.10
2018-11-22T12:31:45.718Z,7.80
2018-11-22T12:34:15.053Z,7.90
2018-11-22T12:37:20.721Z,7.80
2018-11-22T12:39:48.390Z,7.90
2018-11-22T12:42:16.114Z,7.70
2018-11-22T12:44:43.853Z,8.10
2018-11-22T12:47:11.554Z,7.90
2018-11-22T12:49:39.320Z,7.70
2018-11-22T12:52:07.041Z,7.70
2018-11-22T12:54:35.411Z,8.00
2018-11-22T12:57:03.178Z,7.90
2018-11-22T12:59:30.863Z,8.10
2018-11-22T13:01:58.667Z,8.00
2018-11-22T13:04:26.385Z,7.90
2018-11-22T13:06:54.110Z,8.30
2018-11-22T13:09:22.871Z,8.10
2018-11-22T13:11:49.601Z,8.50
2018-11-22T13:14:17.290Z,8.10
2018-11-22T13:16:45.006Z,7.90
2018-11-22T13:19:12.715Z,7.90
2018-11-22T13:21:40.516Z,7.60
2018-11-22T13:24:08.241Z,8.10
2018-11-22T13:26:35.974Z,8.50
2018-11-22T13:29:03.750Z,8.30
2018-11-22T13:31:31.505Z,8.30
2018-11-22T13:33:59.226Z,8.30
2018-11-22T13:36:27.026Z,8.30
2018-11-22T13:38:54.742Z,8.40
2018-11-22T13:41:22.459Z,8.20
2018-11-22T13:43:50.198Z,8.40
2018-11-22T13:46:17.957Z,8.20
2018-11-22T13:48:45.682Z,8.50
2018-11-22T13:51:13.394Z,8.50
2018-11-22T13:53:41.195Z,8.40
2018-11-22T13:56:08.941Z,9.20
2018-11-22T13:58:36.782Z,9.10
2018-11-22T14:01:04.659Z,9.60
2018-11-22T14:03:32.398Z,9.10
2018-11-22T14:06:00.107Z,9.10
2018-11-22T14:08:27.845Z,9.20
2018-11-22T14:10:58.533Z,9.10
2018-11-22T14:13:23.330Z,9.00
2018-11-22T14:15:51.053Z,9.00
2018-11-22T14:18:18.862Z,8.90
2018-11-22T14:20:46.594Z,8.50
2018-11-22T14:23:14.330Z,8.40
2018-11-22T14:25:45.071Z,8.30
2018-11-22T14:28:09.878Z,8.70
2018-11-22T14:30:37.577Z,8.30
2018-11-22T14:33:05.367Z,8.20
2018-11-22T14:35:33.126Z,8.20
2018-11-22T14:38:00.849Z,8.30
2018-11-22T14:40:30.014Z,8.60
2018-11-22T14:42:57.818Z,8.80
2018-11-22T14:45:26.258Z,9.30
2018-11-22T14:47:55.239Z,9.10
2018-11-22T14:50:28.859Z,8.70
2018-11-22T14:53:06.566Z,8.70
2018-11-22T14:55:34.332Z,9.10
2018-11-22T14:58:02.062Z,9.10
2018-11-22T15:00:29.810Z,9.00
2018-11-22T15:02:57.533Z,9.10
2018-11-22T15:05:25.268Z,8.90
2018-11-22T15:07:53.246Z,9.20
2018-11-22T15:10:21.023Z,8.80
2018-11-22T15:12:49.230Z,8.80
2018-11-22T15:15:18.625Z,8.70
2018-11-22T15:17:46.406Z,8.20
2018-11-22T15:20:16.613Z,8.10
2018-11-22T15:22:45.239Z,7.90
2018-11-22T15:25:17.463Z,7.60
2018-11-22T15:27:45.476Z,7.80
2018-11-22T15:30:15.667Z,7.70
2018-11-22T15:32:43.406Z,7.80
2018-11-22T15:35:17.802Z,7.40
2018-11-22T15:37:45.972Z,7.30
2018-11-22T15:40:16.889Z,7.20
2018-11-22T15:42:45.602Z,7.40
2018-11-22T15:45:14.689Z,7.30
2018-11-22T15:47:42.773Z,7.40
2018-11-22T15:50:20.415Z,7.00
2018-11-22T15:52:48.190Z,7.10
2018-11-22T15:55:20.838Z,7.10
2018-11-22T15:57:45.706Z,6.90
2018-11-22T16:00:16.157Z,6.90
2018-11-22T16:02:44.810Z,7.10
2018-11-22T16:05:13.085Z,6.40
2018-11-22T16:07:41.550Z,6.70
2018-11-22T16:10:12.418Z,7.00
2018-11-22T16:12:40.134Z,6.60
2018-11-22T16:15:13.467Z,6.50
2018-11-22T16:17:41.740Z,6.90
2018-11-22T16:20:09.698Z,6.30
2018-11-22T16:22:37.573Z,6.50
2018-11-22T16:25:06.989Z,6.30
2018-11-22T16:27:34.787Z,6.80
2018-11-22T16:30:02.798Z,6.50
2018-11-22T16:32:30.562Z,6.60
2018-11-22T16:34:58.283Z,6.20
2018-11-22T16:37:26.007Z,6.50
2018-11-22T16:39:54.255Z,6.50
2018-11-22T16:42:21.530Z,6.40
2018-11-22T16:44:49.303Z,6.40
2018-11-22T16:47:17.150Z,6.20
2018-11-22T16:49:44.944Z,6.40
2018-11-22T16:52:12.748Z,6.00
2018-11-22T16:54:40.470Z,6.20
2018-11-22T16:57:08.231Z,6.20
2018-11-22T16:59:35.950Z,5.90
2018-11-22T17:02:03.730Z,6.10
2018-11-22T17:04:31.450Z,6.20
2018-11-22T17:06:59.222Z,5.90
2018-11-22T17:09:27.070Z,6.40
2018-11-22T17:11:54.841Z,6.00
2018-11-22T17:14:22.583Z,5.90
2018-11-22T17:16:50.345Z,5.90
2018-11-22T17:19:18.134Z,6.10
2018-11-22T17:21:45.909Z,6.10
2018-11-22T17:24:13.667Z,5.70
2018-11-22T17:26:41.398Z,6.00
2018-11-22T17:29:09.153Z,5.70
2018-11-22T17:31:36.958Z,5.90
2018-11-22T17:34:05.071Z,5.70
2018-11-22T17:36:32.842Z,5.90
2018-11-22T17:39:00.602Z,5.80
2018-11-22T17:41:28.314Z,5.60
2018-11-22T17:43:56.127Z,5.90
2018-11-22T17:46:23.860Z,5.70
2018-11-22T17:48:51.862Z,5.80
2018-11-22T17:51:19.619Z,5.70
2018-11-22T17:53:47.367Z,5.70
2018-11-22T17:56:15.086Z,5.40
2018-11-22T17:58:42.868Z,5.50
2018-11-22T18:01:14.548Z,5.60
2018-11-22T18:03:38.442Z,5.30
2018-11-22T18:06:06.226Z,5.60
2018-11-22T18:08:33.965Z,5.60
2018-11-22T18:11:01.707Z,5.30
2018-11-22T18:13:29.483Z,5.50
2018-11-22T18:15:58.240Z,5.50
2018-11-22T18:18:26.597Z,5.30
2018-11-22T18:20:54.366Z,5.40
2018-11-22T18:23:22.104Z,5.20
2018-11-22T18:25:49.847Z,5.40
2018-11-22T18:28:17.622Z,5.10
2018-11-22T18:30:45.408Z,5.40
2018-11-22T18:33:13.182Z,5.30
2018-11-22T18:35:40.939Z,5.20
2018-11-22T18:38:08.655Z,5.30
2018-11-22T18:40:37.930Z,5.10
2018-11-22T18:43:05.785Z,5.00
2018-11-22T18:45:34.906Z,5.10
2018-11-22T18:48:03.675Z,5.00
2018-11-22T18:50:32.490Z,4.80
2018-11-22T18:53:00.249Z,5.10
2018-11-22T18:55:28.050Z,5.00
2018-11-22T18:57:55.779Z,4.80
2018-11-22T19:00:31.567Z,5.00
2018-11-22T19:03:01.033Z,4.90
2018-11-22T19:05:28.858Z,5.10
2018-11-22T19:07:57.375Z,4.70
2018-11-22T19:10:26.327Z,5.10
2018-11-22T19:12:55.341Z,4.80
2018-11-22T19:15:24.689Z,5.00
2018-11-22T19:17:52.829Z,4.80
2018-11-22T19:20:23.170Z,5.10
2018-11-22T19:22:51.621Z,5.00
2018-11-22T19:25:19.984Z,4.80
2018-11-22T19:27:47.981Z,5.10
2018-11-22T19:30:17.997Z,5.00
2018-11-22T19:32:46.734Z,4.80
2018-11-22T19:35:15.571Z,4.90
2018-11-22T19:37:43.665Z,4.90
2018-11-22T19:40:15.918Z,5.10
2018-11-22T19:42:44.723Z,5.00
2018-11-22T19:45:14.099Z,5.00
2018-11-22T19:47:41.884Z,5.10
2018-11-22T19:50:12.009Z,5.30
2018-11-22T19:52:39.733Z,5.10
2018-11-22T19:55:10.088Z,5.30
2018-11-22T19:57:37.846Z,5.20
2018-11-22T20:00:08.007Z,5.20
2018-11-22T20:02:35.745Z,5.40
2018-11-22T20:05:03.722Z,5.20
2018-11-22T20:07:31.474Z,5.10
2018-11-22T20:09:59.198Z,5.10
2018-11-22T20:12:26.941Z,5.20
2018-11-22T20:14:54.678Z,5.20
2018-11-22T20:17:22.402Z,5.30
2018-11-22T20:19:50.221Z,5.10
2018-11-22T20:22:17.967Z,5.50
2018-11-22T20:24:45.726Z,5.50
2018-11-22T20:27:13.499Z,5.60
2018-11-22T20:29:41.238Z,5.30
2018-11-22T20:32:08.983Z,5.60
2018-11-22T20:34:36.750Z,5.60
2018-11-22T20:37:04.560Z,5.30
2018-11-22T20:39:32.315Z,5.20
2018-11-22T20:42:00.066Z,5.30
2018-11-22T20:44:27.838Z,5.20
2018-11-22T20:46:55.592Z,5.10
2018-11-22T20:49:23.433Z,5.10
2018-11-22T20:51:51.189Z,5.10
2018-11-22T20:54:18.937Z,5.00
2018-11-22T20:56:46.677Z,4.80
2018-11-22T20:59:14.430Z,5.10
2018-11-22T21:01:42.164Z,4.90
2018-11-22T21:04:09.910Z,4.90
2018-11-22T21:06:37.618Z,4.90
2018-11-22T21:09:08.688Z,5.00
2018-11-22T21:11:43.201Z,4.60
2018-11-22T21:14:05.643Z,4.80
2018-11-22T21:16:33.373Z,5.00
2018-11-22T21:19:01.127Z,4.80
2018-11-22T21:21:28.978Z,5.10
2018-11-22T21:23:56.726Z,4.70
2018-11-22T21:26:24.656Z,5.00
2018-11-22T21:28:52.742Z,5.00
2018-11-22T21:31:20.486Z,5.00
2018-11-22T21:33:48.971Z,4.70
2018-11-22T21:36:16.807Z,4.60
2018-11-22T21:38:44.770Z,4.70
2018-11-22T21:41:12.523Z,4.70
2018-11-22T21:43:40.451Z,4.70
2018-11-22T21:46:08.230Z,3.90
2018-11-22T21:48:35.958Z,4.50
2018-11-22T21:51:03.742Z,4.50
2018-11-22T21:53:31.891Z,4.50
2018-11-22T21:55:59.674Z,4.50
2018-11-22T21:58:27.431Z,4.50
2018-11-22T22:00:55.190Z,4.80
2018-11-22T22:03:22.954Z,4.70
2018-11-22T22:05:50.813Z,4.60
2018-11-22T22:08:18.541Z,4.60
2018-11-22T22:10:46.299Z,4.60
2018-11-22T22:13:14.059Z,4.60
2018-11-22T22:15:41.814Z,4.70
2018-11-22T22:18:09.650Z,4.70
2018-11-22T22:20:37.654Z,4.30
2018-11-22T22:23:05.487Z,4.40
2018-11-22T22:25:33.265Z,4.40
2018-11-22T22:28:01.418Z,4.50
2018-11-22T22:30:30.603Z,4.30
2018-11-22T22:33:01.005Z,4.40
2018-11-22T22:35:28.762Z,4.40
2018-11-22T22:37:56.474Z,4.40
2018-11-22T22:40:25.658Z,4.50
2018-11-22T22:42:54.471Z,4.00
2018-11-22T22:45:23.288Z,4.00
2018-11-22T22:47:51.550Z,4.10
2018-11-22T22:50:21.442Z,4.00
2018-11-22T22:52:50.476Z,4.20
2018-11-22T22:55:18.237Z,4.10
2018-11-22T22:57:45.998Z,4.10
2018-11-22T23:00:22.314Z,4.00
2018-11-22T23:02:52.294Z,4.00
2018-11-22T23:05:20.653Z,4.20
2018-11-22T23:07:48.473Z,4.00
2018-11-22T23:10:16.880Z,4.00
2018-11-22T23:12:44.647Z,3.90
2018-11-22T23:15:14.455Z,4.00
2018-11-22T23:17:42.522Z,4.20
2018-11-22T23:20:14.715Z,3.90
2018-11-22T23:22:42.984Z,3.70
2018-11-22T23:25:11.703Z,3.90
2018-11-22T23:27:39.835Z,3.80
2018-11-22T23:30:18.334Z,3.90
2018-11-22T23:32:47.133Z,3.80
2018-11-22T23:35:15.122Z,4.00
2018-11-22T23:37:43.165Z,4.00
2018-11-22T23:40:12.805Z,3.70
2018-11-22T23:42:40.858Z,3.90
2018-11-22T23:45:10.215Z,3.60
2018-11-22T23:47:38.533Z,3.50
2018-11-22T23:50:09.193Z,3.60
2018-11-22T23:52:36.930Z,3.70
2018-11-22T23:55:05.322Z,3.70
2018-11-22T23:57:33.023Z,3.40
